Time;durP1;ratioP1;P1;durP2;ratioP2;P2;SDS_P1;SDS_P2;PMS_P1;PMS_P2;Temp;Humidity;BMP_temperature;BMP_pressure;BME280_temperature;BME280_humidity;BME280_pressure;Samples;Min_cycle;Max_cycle;Signal;HPM_P1;HPM_P2
2022/02/03 00:07:02;;;;;;;17.67;7.65;;;;;;;;;;10373911;28;20034;-65
2022/02/03 00:27:59;;;;;;;11.57;6.93;;;;;;;;;;10370636;28;20026;-65
2022/02/03 00:49:01;;;;;;;11.30;7.20;;;;;;;;;;10373140;28;20586;-66
2022/02/03 00:54:02;;;;;;;13.05;7.60;;;;;;;;;;10373062;28;20046;-66
2022/02/03 00:59:22;;;;;;;12.43;6.68;;;;;;;;;;10372892;28;20126;-65
2022/02/03 01:04:25;;;;;;;11.73;7.05;;;;;;;;;;10371639;28;20022;-66
2022/02/03 01:09:28;;;;;;;15.52;6.40;;;;;;;;;;10371229;28;20437;-66
2022/02/03 01:46:41;;;;;;;10.80;6.53;;;;;;;;;;10370079;28;20050;-67
2022/02/03 01:51:54;;;;;;;9.45;5.93;;;;;;;;;;10370354;28;20022;-67
2022/02/03 01:57:07;;;;;;;9.60;5.80;;;;;;;;;;10368958;28;20030;-67
2022/02/03 02:02:08;;;;;;;12.18;6.35;;;;;;;;;;10370266;28;20026;-66
2022/02/03 02:07:30;;;;;;;9.85;6.13;;;;;;;;;;10370005;28;20026;-68
2022/02/03 02:12:56;;;;;;;8.05;5.82;;;;;;;;;;10370139;28;20046;-68
2022/02/03 02:45:14;;;;;;;12.85;5.78;;;;;;;;;;10369570;28;20041;-68
2022/02/03 02:50:46;;;;;;;8.68;5.60;;;;;;;;;;10365275;28;20030;-67
2022/02/03 02:56:07;;;;;;;8.35;5.32;;;;;;;;;;10366913;28;20033;-67
2022/02/03 03:38:08;;;;;;;7.85;5.32;;;;;;;;;;10366959;28;19913;-66
2022/02/03 03:43:12;;;;;;;8.77;5.55;;;;;;;;;;10367199;28;20040;-67
2022/02/03 03:48:17;;;;;;;8.65;5.28;;;;;;;;;;10367389;28;20033;-66
2022/02/03 03:53:40;;;;;;;6.82;5.10;;;;;;;;;;10365460;28;20115;-67
2022/02/03 05:04:45;;;;;;;7.07;5.25;;;;;;;;;;10371353;28;20038;-66
2022/02/03 05:15:46;;;;;;;7.88;4.60;;;;;;;;;;10370849;28;20053;-66
2022/02/03 05:21:25;;;;;;;7.25;4.78;;;;;;;;;;10372723;28;20116;-67
2022/02/03 05:32:20;;;;;;;9.18;5.43;;;;;;;;;;10371592;28;20034;-68
2022/02/03 06:12:06;;;;;;;7.85;4.80;;;;;;;;;;10369146;28;20029;-67
2022/02/03 06:15:00;;;;;;;7.70;4.82;;;;;;;;;;10367871;28;20085;-67
2022/02/03 06:30:21;;;;;;;10.63;4.90;;;;;;;;;;10369931;28;19953;-67
2022/02/03 06:35:21;;;;;;;8.25;4.22;;;;;;;;;;10369535;28;20028;-67
2022/02/03 06:40:21;;;;;;;5.93;4.03;;;;;;;;;;10368388;28;20040;-68
2022/02/03 06:45:35;;;;;;;17.52;4.30;;;;;;;;;;10368161;28;20497;-66
2022/02/03 06:50:41;;;;;;;9.70;4.50;;;;;;;;;;10368660;28;20085;-66
2022/02/03 07:00:58;;;;;;;12.05;4.82;;;;;;;;;;10367938;28;20041;-66
2022/02/03 07:05:59;;;;;;;11.10;4.93;;;;;;;;;;10364927;28;20030;-66
2022/02/03 07:11:01;;;;;;;16.80;4.82;;;;;;;;;;10366248;28;20033;-64
2022/02/03 07:16:01;;;;;;;16.40;5.30;;;;;;;;;;10365825;28;20508;-68
2022/02/03 07:21:02;;;;;;;15.95;5.15;;;;;;;;;;10366133;28;20116;-65
2022/02/03 07:26:02;;;;;;;17.48;5.15;;;;;;;;;;10365512;28;20022;-65
2022/02/03 07:31:03;;;;;;;18.38;5.80;;;;;;;;;;10366718;28;20446;-64
2022/02/03 07:36:04;;;;;;;17.27;6.47;;;;;;;;;;10367205;28;20018;-68
2022/02/03 07:41:05;;;;;;;20.73;5.25;;;;;;;;;;10366291;28;20413;-65
2022/02/03 07:46:05;;;;;;;14.45;5.22;;;;;;;;;;10366799;28;20038;-65
2022/02/03 07:51:05;;;;;;;16.50;5.43;;;;;;;;;;10367017;28;20026;-65
2022/02/03 07:56:06;;;;;;;16.55;6.10;;;;;;;;;;10368897;28;20428;-66
2022/02/03 08:01:06;;;;;;;17.07;5.70;;;;;;;;;;10375123;28;20022;-67
2022/02/03 08:06:10;;;;;;;11.70;5.53;;;;;;;;;;10375324;28;20108;-65
2022/02/03 08:11:16;;;;;;;14.40;5.90;;;;;;;;;;10374941;28;20465;-66
2022/02/03 08:21:19;;;;;;;16.87;5.13;;;;;;;;;;10371234;28;20040;-66
2022/02/03 08:31:40;;;;;;;22.98;6.60;;;;;;;;;;10374088;28;20022;-67
2022/02/03 08:36:41;;;;;;;19.27;6.37;;;;;;;;;;10373690;28;20033;-67
2022/02/03 08:41:41;;;;;;;14.68;5.78;;;;;;;;;;10373158;28;20025;-67
2022/02/03 08:46:42;;;;;;;15.63;6.57;;;;;;;;;;10373032;28;20411;-66
2022/02/03 08:51:45;;;;;;;14.77;6.37;;;;;;;;;;10373170;28;20534;-66
2022/02/03 08:56:57;;;;;;;18.80;5.95;;;;;;;;;;10373568;28;20456;-67
2022/02/03 09:50:20;;;;;;;12.55;4.88;;;;;;;;;;10365474;28;20034;-67
2022/02/03 10:06:12;;;;;;;14.15;5.22;;;;;;;;;;10370545;28;20037;-67
2022/02/03 10:11:17;;;;;;;10.60;4.55;;;;;;;;;;10370385;28;20045;-67
2022/02/03 10:16:20;;;;;;;10.88;4.88;;;;;;;;;;10369936;28;20046;-67
2022/02/03 10:21:22;;;;;;;11.48;4.10;;;;;;;;;;10369111;28;20091;-67
2022/02/03 10:26:30;;;;;;;9.32;4.20;;;;;;;;;;10369705;28;20054;-66
2022/02/03 10:31:35;;;;;;;9.40;4.43;;;;;;;;;;10366630;28;20037;-67
2022/02/03 10:36:48;;;;;;;11.80;4.30;;;;;;;;;;10369505;28;20582;-67
2022/02/03 10:42:10;;;;;;;10.93;4.45;;;;;;;;;;10368621;28;20034;-67
2022/02/03 10:52:48;;;;;;;7.82;3.63;;;;;;;;;;10367901;28;20276;-66
2022/02/03 11:13:43;;;;;;;6.68;4.28;;;;;;;;;;10368404;28;20054;-66
2022/02/03 11:18:45;;;;;;;11.25;3.75;;;;;;;;;;10367315;28;20026;-66
2022/02/03 11:23:52;;;;;;;7.40;3.53;;;;;;;;;;10368447;28;20476;-67
2022/02/03 11:29:13;;;;;;;8.93;3.55;;;;;;;;;;10367430;28;20030;-67
2022/02/03 11:55:49;;;;;;;7.43;3.72;;;;;;;;;;10375728;28;20090;-66
2022/02/03 12:21:41;;;;;;;6.57;3.13;;;;;;;;;;10374253;28;20029;-67
2022/02/03 12:32:23;;;;;;;5.07;3.08;;;;;;;;;;10374062;28;20014;-66
2022/02/03 12:38:22;;;;;;;6.78;3.15;;;;;;;;;;10374523;28;20022;-67
2022/02/03 12:42:53;;;;;;;6.22;2.95;;;;;;;;;;10369432;28;20489;-67
2022/02/03 12:47:59;;;;;;;6.68;3.00;;;;;;;;;;10372890;28;20029;-67
2022/02/03 12:53:01;;;;;;;8.18;3.20;;;;;;;;;;10370250;28;20351;-67
2022/02/03 12:58:11;;;;;;;7.57;2.78;;;;;;;;;;10373477;28;20033;-66
2022/02/03 13:03:14;;;;;;;7.68;3.28;;;;;;;;;;10373807;28;20026;-67
2022/02/03 13:08:15;;;;;;;4.60;2.67;;;;;;;;;;10373188;28;20025;-67
2022/02/03 13:13:23;;;;;;;8.70;2.50;;;;;;;;;;10372055;28;20417;-67
2022/02/03 13:18:29;;;;;;;7.63;3.10;;;;;;;;;;10371612;28;20038;-67
2022/02/03 13:23:32;;;;;;;6.38;3.28;;;;;;;;;;10371617;28;20038;-66
2022/02/03 13:33:44;;;;;;;6.95;2.78;;;;;;;;;;10371784;28;20026;-66
2022/02/03 13:39:02;;;;;;;3.70;2.60;;;;;;;;;;10372249;28;20105;-67
2022/02/03 13:44:11;;;;;;;5.15;2.63;;;;;;;;;;10370710;28;20025;-67
2022/02/03 13:49:23;;;;;;;9.73;2.63;;;;;;;;;;10365707;28;20056;-67
2022/02/03 14:31:15;;;;;;;29.98;3.70;;;;;;;;;;10369488;28;20404;-61
2022/02/03 14:36:20;;;;;;;19.73;4.47;;;;;;;;;;10369251;28;20041;-58
2022/02/03 14:41:25;;;;;;;28.50;4.03;;;;;;;;;;10369746;28;20391;-59
2022/02/03 14:46:26;;;;;;;17.38;3.13;;;;;;;;;;10368872;28;20373;-58
2022/02/03 14:51:29;;;;;;;14.18;2.88;;;;;;;;;;10369739;28;20026;-59
2022/02/03 15:01:49;;;;;;;;;;;;;;;;;;10365567;28;20030;-58
2022/02/03 15:06:57;;;;;;;9.20;3.00;;;;;;;;;;10368320;28;19913;-58
2022/02/03 15:12:05;;;;;;;17.63;2.92;;;;;;;;;;10368316;28;20121;-59
2022/02/03 15:17:06;;;;;;;7.57;2.85;;;;;;;;;;10367483;28;20065;-62
2022/02/03 15:22:06;;;;;;;8.48;2.80;;;;;;;;;;10367853;28;20045;-59
2022/02/03 15:27:06;;;;;;;8.87;3.47;;;;;;;;;;10368891;28;20450;-59
2022/02/03 15:32:07;;;;;;;11.10;2.90;;;;;;;;;;10367677;28;20467;-59
2022/02/03 15:37:13;;;;;;;12.27;2.73;;;;;;;;;;10367801;28;20432;-58
2022/02/03 15:42:17;;;;;;;9.38;2.60;;;;;;;;;;10367952;28;20084;-58
2022/02/03 15:47:29;;;;;;;11.77;3.00;;;;;;;;;;10367633;28;20100;-58
2022/02/03 16:02:57;;;;;;;4.93;2.53;;;;;;;;;;10364190;28;20482;-63
2022/02/03 16:18:30;;;;;;;10.35;2.40;;;;;;;;;;10371249;28;20393;-59
2022/02/03 16:24:02;;;;;;;11.32;2.75;;;;;;;;;;10374438;28;20164;-58
2022/02/03 16:55:34;;;;;;;5.38;2.28;;;;;;;;;;10373780;28;20033;-58
2022/02/03 17:00:35;;;;;;;5.25;2.30;;;;;;;;;;10374228;28;20032;-58
2022/02/03 17:05:38;;;;;;;7.05;2.58;;;;;;;;;;10373020;28;20503;-59
2022/02/03 17:10:38;;;;;;;8.52;2.40;;;;;;;;;;10369734;28;20028;-58
2022/02/03 17:15:38;;;;;;;2.73;1.80;;;;;;;;;;10372557;28;20049;-58
2022/02/03 17:20:41;;;;;;;3.40;2.00;;;;;;;;;;10368980;28;21228;-59
2022/02/03 17:26:02;;;;;;;4.90;2.42;;;;;;;;;;10372548;28;20022;-58
2022/02/03 17:31:18;;;;;;;7.38;2.75;;;;;;;;;;10370917;28;20030;-59
2022/02/03 18:08:30;;;;;;;7.53;3.28;;;;;;;;;;10370727;28;20032;-59
2022/02/03 18:35:10;;;;;;;;;;;;;;;;;;10364290;28;20026;-60
2022/02/03 18:46:05;;;;;;;7.63;3.67;;;;;;;;;;10337697;28;20056;-61
2022/02/03 18:51:13;;;;;;;8.02;4.30;;;;;;;;;;10362805;28;20076;-62
2022/02/03 20:04:46;;;;;;;21.60;6.97;;;;;;;;;;10375842;28;20034;-60
2022/02/03 20:14:49;;;;;;;15.17;6.50;;;;;;;;;;10374771;28;20465;-59
2022/02/03 20:19:50;;;;;;;14.68;6.03;;;;;;;;;;10374833;28;20458;-60
2022/02/03 20:24:50;;;;;;;24.08;5.55;;;;;;;;;;10375001;28;20022;-59
2022/02/03 20:29:51;;;;;;;17.30;5.30;;;;;;;;;;10371695;28;20505;-60
2022/02/03 20:34:51;;;;;;;12.43;5.70;;;;;;;;;;10374471;28;20451;-61
2022/02/03 20:39:51;;;;;;;9.87;4.80;;;;;;;;;;10370953;28;20056;-60
2022/02/03 20:44:52;;;;;;;13.80;5.10;;;;;;;;;;10374159;28;20451;-60
2022/02/03 20:49:52;;;;;;;15.15;5.78;;;;;;;;;;10372373;28;20503;-63
2022/02/03 20:54:53;;;;;;;12.10;5.85;;;;;;;;;;10372966;28;20022;-61
2022/02/03 21:05:16;;;;;;;18.10;5.63;;;;;;;;;;10373001;28;20026;-63
2022/02/03 21:10:23;;;;;;;12.90;5.05;;;;;;;;;;10373390;28;20032;-63
2022/02/03 21:15:27;;;;;;;9.70;5.18;;;;;;;;;;10372618;28;20208;-61
2022/02/03 21:20:28;;;;;;;12.32;4.55;;;;;;;;;;10372008;28;20132;-61
2022/02/03 21:30:32;;;;;;;9.80;4.30;;;;;;;;;;10372438;28;20026;-64
2022/02/03 21:35:32;;;;;;;14.15;4.63;;;;;;;;;;10368165;28;20030;-60
2022/02/03 21:40:33;;;;;;;7.88;4.53;;;;;;;;;;10367746;28;20510;-61
2022/02/03 21:45:34;;;;;;;7.90;4.28;;;;;;;;;;10371129;28;20080;-63
2022/02/03 21:50:38;;;;;;;11.75;4.97;;;;;;;;;;10371424;28;20425;-64
2022/02/03 21:55:39;;;;;;;7.63;4.20;;;;;;;;;;10369943;28;20112;-62
2022/02/03 22:00:40;;;;;;;10.13;4.77;;;;;;;;;;10370794;28;20085;-62
2022/02/03 22:05:41;;;;;;;9.55;4.45;;;;;;;;;;10370570;28;20510;-64
2022/02/03 22:10:41;;;;;;;11.55;4.72;;;;;;;;;;10371035;28;20397;-62
2022/02/03 22:15:42;;;;;;;10.93;4.70;;;;;;;;;;10369415;28;20578;-59
2022/02/03 22:21:01;;;;;;;7.05;4.53;;;;;;;;;;10369442;28;20456;-59
2022/02/03 22:47:18;;;;;;;9.88;4.32;;;;;;;;;;10366661;28;20434;-60
2022/02/03 22:52:18;;;;;;;10.95;5.55;;;;;;;;;;10369006;28;20096;-62
2022/02/03 22:57:18;;;;;;;16.27;6.43;;;;;;;;;;10368790;28;20037;-61
2022/02/03 23:02:19;;;;;;;16.33;7.07;;;;;;;;;;10368284;28;20026;-62
2022/02/03 23:07:35;;;;;;;17.35;7.15;;;;;;;;;;10369146;28;20718;-62
2022/02/03 23:17:58;;;;;;;22.95;7.97;;;;;;;;;;10367960;28;20152;-61
2022/02/03 23:22:58;;;;;;;20.02;7.88;;;;;;;;;;10368081;28;20038;-60
2022/02/03 23:32:59;;;;;;;15.30;6.90;;;;;;;;;;10368176;28;20539;-61
